Ride Results

Mudgee Ray Gooley Memorial Ride (16-05-2015)
Ride distance: 80.0 km

Outcomes - Mudgee Ray Gooley Memorial Ride (16-05-2015)
Division No. of Entries Retired / DNE Completed Withdrawn Ineligible V/O Percentage Completed
HW 25 - 22 1 - 2 88.00%
MW 34 - 25 6 - 3 73.53%
LW 17 - 14 - - 3 82.35%
JN 7 - 7 - - - 100.00%
Totals 83 - 68 7 - 8 81.93%
Results - Mudgee Ray Gooley Memorial Ride (16-05-2015)
No. Rider Horse Place Time Leg Speeds Total
Km/Hr
H/R bpm
Heavyweight
58 Scott Davenport Alhambra Pierrot 1 (BC) 4:34:00 18.7, 16.4 17.52 32, 35, 44 (Avg:39)
62 Gavin Peacock Eclipse 2 4:57:00 17.9, 14.7 16.16 32, 38, 50 (Avg:44)
225 Allan Caslick A'Landell Charlie 3 5:25:00 13.8, 15.7 14.77 28, 40, 48 (Avg:44)
60 Jolene Cole Henley Farm Kudra 4 5:32:00 16.7, 12.6 14.46 30, 41, 60 (Avg:50)
48 Jack Johnson Sharahd Narang 5 5:42:00 14.7, 13.4 14.04 29, 40, 38 (Avg:39)
57 Scott Peters Castlebar Icon 5 5:42:00 14.7, 13.4 14.04 32, 38, 42 (Avg:40)
53 Alan Lindsay Kintamani Silver Motif 7 6:11:00 13.0, 12.8 12.94 36, 42, 44 (Avg:43)
50 Sue Warren Razorback Flash 8 6:12:00 14.9, 11.3 12.90 40, 52, 52 (Avg:52)
51 Annette Truman Saradova 9 6:27:00 13.4, 11.4 12.40 30, 36, 60 (Avg:48)
55 Paddy Smith Akifa Farras Shamah 10 6:28:00 13.5, 11.3 12.37 44, 44, 48 (Avg:46)
49 Rod Mitchell Aloha Tribal Warrior 11 6:35:00 13.3, 11.1 12.15 32, 42, 59 (Avg:50)
56 Stephen Bennett Aloha Zac 12 6:45:00 12.7, 11.0 11.85 48, 44, 50 (Avg:47)
47 Ian Dreghorn Ausden Nile Prins 12 6:45:00 13.4, 10.5 11.85 38, 44, 44 (Avg:44)
63 Marita Rifai Tianna 12 6:45:00 13.9, 10.3 11.85 36, 44, 50 (Avg:47)
52 Phil Coleman Rainbows Reach Dark N Stormy 15 6:47:00 12.8, 10.9 11.79 38, 39, 45 (Avg:42)
227 Roy Barsby Baranne Spirit 16 6:52:00 11.3, 11.9 11.65 44, 44, 52 (Avg:48)
67 John Dawson Duce 17 7:03:00 12.1, 10.6 11.35 30, 42, 48 (Avg:45)
68 Jaymee Ferguson Taeaura Shayarnah 17 7:03:00 12.1, 10.6 11.35 44, 39, 46 (Avg:42)
59 Steve Broadbent Glendhu Moonshine 19 7:25:00 11.8, 9.8 10.79 31, 37, 41 (Avg:39)
61 Keith Sumpner Fonda 20 7:32:00 12.3, 9.3 10.62 32, 40, 46 (Avg:43)
65 John Howe Ashbend Perazzi 21 8:04:00 10.5, 9.3 9.92 42, 38, 43 (Avg:40)
69 Brian Stott Sahra Sarab 22 8:07:00 11.3, 8.7 9.86 35, 39, 45 (Avg:42)
66 Jody Harrison Phoenix Lame L2 0:00:00 10.7, 7.7 - 34, 42, 56 (Avg:49)
64 Thomas Hermann TTH Headliner Lame L1 0:00:00 15.8 - 50, 40 (Avg:40)
54 Mark Lindsay Kintamani Silver Marksman Widthdrawn L1 0:00:00 - - 37, 34 (Avg:34)
Middleweight
38 Emily Streckfuss Webbs Creek Starlight 1 (BC) 5:03:00 16.9, 14.9 15.84 28, 37, 37 (Avg:37)
20 David Player Mirakhani Saa'meer 2 5:30:00 16.5, 12.9 14.55 46, 40, 39 (Avg:39)
30 Darryl King James Bonn 3 5:38:00 14.2, 14.1 14.20 36, 32, 43 (Avg:37)
33 Jennifer Gilbertson Coolahlee Park Saraba 4 5:47:00 14.2, 13.4 13.83 40, 41, 41 (Avg:41)
26 Georgia Curry Macquarie Park Banjo 5 6:04:00 13.7, 12.6 13.19 36, 38, 59 (Avg:48)
28 April Bonham Lyndrian Genesis 6 6:11:00 13.7, 12.1 12.94 40, 40, 42 (Avg:41)
37 Wayne Johnson Desert Duelers Con 7 6:19:00 14.9, 10.9 12.66 46, 40, 52 (Avg:46)
21 Michele Ladmore Azale Aladdin 8 6:22:00 12.6, 12.4 12.57 38, 49, 51 (Avg:50)
42 Alamdar Dastani Malana 9 6:45:00 12.4, 11.2 11.85 40, 41, 46 (Avg:43)
31 Meg Garzaniti Shanadarr Khaleel 9 6:45:00 13.7, 10.3 11.85 40, 52, 49 (Avg:50)
41 Daniel Noble Aloha Sundial 9 6:45:00 12.4, 11.2 11.85 30, 30, 42 (Avg:36)
12 Carol Major Anijoa Anna 12 6:47:00 13.1, 10.6 11.79 38, 40, 46 (Avg:43)
22 Victoria Bonham Bridle Track Bogart 13 6:48:00 12.0, 11.4 11.76 50, 46, 50 (Avg:48)
23 Chris Noonan Bridle Track Tiara 13 6:48:00 12.0, 11.4 11.76 38, 40, 45 (Avg:42)
46 Deanna Loomes Dumaresq Jackson 15 6:52:00 11.3, 11.9 11.65 32, 34, 40 (Avg:37)
18 Tracy Broadbent Splendacrest Grouse 16 7:25:00 11.8, 9.8 10.79 36, 38, 42 (Avg:40)
19 Melanie Anderson Ausden Kon Tiki 17 7:28:00 12.0, 9.6 10.71 28, 39, 60 (Avg:49)
39 Cody Holloway Blue Chip Jordan 18 7:31:00 10.5, 10.7 10.64 38, 34, 41 (Avg:37)
10 Alex Baczocha Ralvon Secret 19 7:36:00 10.4, 10.5 10.53 36, 40, 44 (Avg:42)
11 Allana Rempel Ralvon Milarna 19 7:36:00 10.5, 10.5 10.53 32, 37, 42 (Avg:39)
25 Karin Santoso Nasnirak Wasaabii 21 7:51:00 10.4, 9.9 10.19 36, 41, 49 (Avg:45)
45 Garry Matthews Scooter 22 8:03:00 10.4, 9.4 9.94 36, 42, 47 (Avg:44)
16 Nicole Smith Skittles 23 8:05:00 9.3, 10.5 9.90 28, 42, 41 (Avg:41)
35 Sonia Bonham Box Hill Ralph 24 8:45:00 10.1, 8.3 9.14 36, 39, 46 (Avg:42)
17 Bernice King Deneldan Shacaargo 25 8:51:00 9.0, 8.9 9.04 36, 38, 52 (Avg:45)
24 Louise Piddington Jotaris Alhasan Lame L2 0:00:00 13.3, 11.5 - 40, 48, 49 (Avg:48)
36 Cheryl Strachan Kintamani Sapphire Widthdrawn L2 0:00:00 - - 26, 40, 40 (Avg:40)
29 Tayla Warren Warren Park O.B. One Lame L2 0:00:00 14.9, 11.3 - 38, 36, 42 (Avg:39)
44 Madeline Cotton Sienna Kaptivating Widthdrawn L1 0:00:00 - - 32, 48 (Avg:48)
32 Gail Fisher Arasarta Narhalinian Widthdrawn L1 0:00:00 - - 36, 48 (Avg:48)
14 Lauren Mitchell Burren-Dah Gidget Widthdrawn L1 0:00:00 - - 36, 38 (Avg:38)
15 Christina Price Banda-Tommy Aha Widthdrawn L1 0:00:00 - - 44, 52, 52 (Avg:52)
27 Marjorie Trudgett Trazir Amir Rhazzikh Widthdrawn L1 0:00:00 - - 32, 38 (Avg:38)
13 Brett Willis Jamil Razah Gazelle Lame L1 0:00:00 17.5 - 31, 55 (Avg:55)
Lightweight
76 Irene Adams Shane D Survivor 1 (BC) 5:03:00 16.9, 14.9 15.84 39, 45, 37 (Avg:41)
84 Susan Woodward Coolahlee Park Samba 2 5:47:00 14.2, 13.4 13.83 36, 40, 40 (Avg:40)
75 Shannen Thorsby Newbury Shaklan's Impact 3 6:22:00 12.6, 12.4 12.57 42, 39, 46 (Avg:42)
83 Victoria Bice Raymar Aden 4 6:33:00 12.5, 11.8 12.21 32, 42, 42 (Avg:42)
80 Shan Symons Dashanda Serene 4 6:33:00 12.5, 11.8 12.21 30, 39, 46 (Avg:42)
79 Dianne Luker Kintamani Silver Diva 6 6:38:00 13.8, 10.6 12.06 32, 38, 38 (Avg:38)
81 Ros Ryan Rainbows Reach Scout 7 6:47:00 12.8, 10.9 11.79 32, 40, 46 (Avg:43)
70 Sue Todd Shakista 7 6:47:00 13.1, 10.6 11.79 32, 44, 46 (Avg:45)
74 Leanne Holz Dumaresq Party Girl 9 6:52:00 11.3, 11.9 11.65 44, 42, 56 (Avg:49)
85 Kate Pilley Aloha Zulm 10 7:03:00 12.7, 10.2 11.35 30, 28, 40 (Avg:34)
86 Amy Danskin A'Landell Prestige 11 8:03:00 10.4, 9.4 9.94 36, 36, 44 (Avg:40)
72 Linda Logan Willow Valley Dartanyan 12 8:07:00 11.4, 8.6 9.86 34, 36, 42 (Avg:39)
78 Allix Jones Wondjina Stardust 13 8:12:00 9.9, 9.5 9.76 38, 38, 43 (Avg:40)
77 Wendy Jones Larntainey Gold 'N' Treasure 13 8:12:00 9.9, 9.5 9.76 34, 38, 49 (Avg:43)
71 Amanda Apperley Jon De Le Nissan Lame L1 0:00:00 18.3 - 32, 40 (Avg:40)
73 Jan Wade Hillville Amigo Lame L1 0:00:00 12.3 - 44, 38 (Avg:38)
82 Emma Broome Raymar Henry Lame P/R 0:00:00 - - 34
Junior
228 Isabella Circosta Ropa Park Bella Shakila 1 (BC) 6:40:00 13.0, 11.1 12.00 29, 37, 40 (Avg:38)
226 Makayla Circosta Ropa Park Bella Rastique 1 6:40:00 13.0, 11.1 12.00 34, 36, 48 (Avg:42)
220 Josephine Jansen Dara Park Luv In The Stars 3 6:45:00 12.5, 11.2 11.85 34, 44, 48 (Avg:46)
229 Phoebe Baczocha Colo Eclipse 4 7:36:00 10.4, 10.5 10.53 36, 46, 47 (Avg:46)
218 Brooke Bonus Velona Joker 5 8:45:00 10.1, 8.3 9.14 38, 48, 52 (Avg:50)
217 Sam Duff Box Hill Gypsy 5 8:45:00 10.1, 8.3 9.14 36, 38, 42 (Avg:40)
219 Lillian Stocks Box Hill Hussy 5 8:45:00 10.1, 8.3 9.14 36, 38, 44 (Avg:41)